createdAt,value
2023-01-27T00:01:18.127Z,18.90
2023-01-27T00:03:45.336Z,17.77
2023-01-27T00:06:13.111Z,25.90
2023-01-27T00:08:40.165Z,14.80
2023-01-27T00:11:26.019Z,13.40
2023-01-27T00:13:53.040Z,16.10
2023-01-27T00:16:23.473Z,15.98
2023-01-27T00:18:50.290Z,13.10
2023-01-27T00:21:35.930Z,15.85
2023-01-27T00:24:21.713Z,13.82
2023-01-27T00:26:51.306Z,12.00
2023-01-27T00:29:18.579Z,11.80
2023-01-27T00:32:04.000Z,12.77
2023-01-27T00:34:30.801Z,11.50
2023-01-27T00:36:57.765Z,13.88
2023-01-27T00:39:25.267Z,8.40
2023-01-27T00:41:52.269Z,7.15
2023-01-27T00:44:19.301Z,16.75
2023-01-27T00:46:46.242Z,9.27
2023-01-27T00:49:13.540Z,12.40
2023-01-27T00:51:40.605Z,11.13
2023-01-27T00:54:07.544Z,11.10
2023-01-27T00:56:35.029Z,12.75
2023-01-27T00:59:01.930Z,11.98
2023-01-27T01:01:29.050Z,10.88
2023-01-27T01:03:56.405Z,13.17
2023-01-27T01:06:23.323Z,18.08
2023-01-27T01:08:52.412Z,11.63
2023-01-27T01:11:20.992Z,10.63
2023-01-27T01:13:48.533Z,9.40
2023-01-27T01:16:22.751Z,10.27
2023-01-27T01:18:50.307Z,14.98
2023-01-27T01:21:17.445Z,14.20
2023-01-27T01:23:45.869Z,13.55
2023-01-27T01:26:14.770Z,12.30
2023-01-27T01:28:41.820Z,13.40
2023-01-27T01:31:12.422Z,9.25
2023-01-27T01:33:39.809Z,14.75
2023-01-27T01:36:08.692Z,11.80
2023-01-27T01:38:36.576Z,12.98
2023-01-27T01:41:04.729Z,19.93
2023-01-27T01:43:31.694Z,11.68
2023-01-27T01:46:00.752Z,15.98
2023-01-27T01:48:41.135Z,13.55
2023-01-27T01:51:22.504Z,14.15
2023-01-27T01:54:05.963Z,12.80
2023-01-27T01:56:49.839Z,14.02
2023-01-27T01:59:25.605Z,14.57
2023-01-27T02:01:57.046Z,15.13
2023-01-27T02:04:30.647Z,12.23
2023-01-27T02:07:36.954Z,10.07
2023-01-27T02:10:04.309Z,16.83
2023-01-27T02:12:34.753Z,16.25
2023-01-27T02:15:01.728Z,13.80
2023-01-27T02:17:28.910Z,13.90
2023-01-27T02:20:17.355Z,10.87
2023-01-27T02:23:14.761Z,19.20
2023-01-27T02:25:48.550Z,10.93
2023-01-27T02:28:15.576Z,19.05
2023-01-27T02:30:42.881Z,17.08
2023-01-27T02:33:14.370Z,19.03
2023-01-27T02:35:52.115Z,17.20
2023-01-27T02:38:20.042Z,15.52
2023-01-27T02:40:52.367Z,14.65
2023-01-27T02:43:19.716Z,12.27
2023-01-27T02:45:47.641Z,16.20
2023-01-27T02:48:15.298Z,12.73
2023-01-27T02:50:42.225Z,20.90
2023-01-27T02:53:09.725Z,13.85
2023-01-27T02:55:37.033Z,10.43
2023-01-27T02:58:04.126Z,13.97
2023-01-27T03:00:41.241Z,16.15
2023-01-27T03:03:08.283Z,16.13
2023-01-27T03:05:35.288Z,13.07
2023-01-27T03:08:02.271Z,12.57
2023-01-27T03:10:29.330Z,18.73
2023-01-27T03:12:58.575Z,16.38
2023-01-27T03:15:44.134Z,15.35
2023-01-27T03:18:16.384Z,17.30
2023-01-27T03:20:47.890Z,17.90
2023-01-27T03:23:17.936Z,15.00
2023-01-27T03:25:49.337Z,13.23
2023-01-27T03:28:16.398Z,17.52
2023-01-27T03:31:06.682Z,16.48
2023-01-27T03:33:43.136Z,16.05
2023-01-27T03:36:46.403Z,19.20
2023-01-27T03:39:31.734Z,15.55
2023-01-27T03:42:17.018Z,14.23
2023-01-27T03:45:03.193Z,18.05
2023-01-27T03:47:30.007Z,17.30
2023-01-27T03:49:56.844Z,13.07
2023-01-27T03:52:23.683Z,22.40
2023-01-27T03:54:50.613Z,17.95
2023-01-27T03:57:17.935Z,18.23
2023-01-27T03:59:44.780Z,29.58
2023-01-27T04:02:30.588Z,17.37
2023-01-27T04:05:15.981Z,14.70
2023-01-27T04:07:42.996Z,15.75
2023-01-27T04:10:10.515Z,18.70
2023-01-27T04:12:37.377Z,15.73
2023-01-27T04:15:04.876Z,14.17
2023-01-27T04:17:38.723Z,14.30
2023-01-27T04:20:06.438Z,18.75
2023-01-27T04:22:33.375Z,13.88
2023-01-27T04:25:00.226Z,18.13
2023-01-27T04:27:27.307Z,13.47
2023-01-27T04:29:54.143Z,17.42
2023-01-27T04:32:21.158Z,13.02
2023-01-27T04:34:48.012Z,13.27
2023-01-27T04:37:14.892Z,12.77
2023-01-27T04:39:42.656Z,12.27
2023-01-27T04:42:09.630Z,12.82
2023-01-27T04:44:36.519Z,11.18
2023-01-27T04:47:03.307Z,11.88
2023-01-27T04:49:30.279Z,11.65
2023-01-27T04:51:57.171Z,11.87
2023-01-27T04:54:24.007Z,11.52
2023-01-27T04:57:03.642Z,9.25
2023-01-27T04:59:30.857Z,9.40
2023-01-27T05:01:58.064Z,7.68
2023-01-27T05:04:26.788Z,9.60
2023-01-27T05:06:53.940Z,8.90
2023-01-27T05:09:20.769Z,10.65
2023-01-27T05:11:47.602Z,8.80
2023-01-27T05:14:14.727Z,9.00
2023-01-27T05:16:41.671Z,8.47
2023-01-27T05:19:09.086Z,8.60
2023-01-27T05:21:35.849Z,10.00
2023-01-27T05:24:03.014Z,11.07
2023-01-27T05:26:30.044Z,11.07
2023-01-27T05:28:58.681Z,7.13
2023-01-27T05:31:28.458Z,11.32
2023-01-27T05:33:57.960Z,6.13
2023-01-27T05:36:25.988Z,7.63
2023-01-27T05:38:54.404Z,8.40
2023-01-27T05:41:22.403Z,5.13
2023-01-27T05:43:53.233Z,7.18
2023-01-27T05:46:22.203Z,5.80
2023-01-27T05:48:51.410Z,5.80
2023-01-27T05:51:20.367Z,6.47
2023-01-27T05:53:47.811Z,4.83
2023-01-27T05:56:18.412Z,8.52
2023-01-27T05:58:45.690Z,9.57
2023-01-27T06:01:14.062Z,6.32
2023-01-27T06:03:42.284Z,7.55
2023-01-27T06:06:10.417Z,10.67
2023-01-27T06:08:38.141Z,5.22
2023-01-27T06:11:05.760Z,7.43
2023-01-27T06:13:35.754Z,6.72
2023-01-27T06:16:05.917Z,5.82
2023-01-27T06:18:34.749Z,5.70
2023-01-27T06:21:02.674Z,5.72
2023-01-27T06:23:30.101Z,5.07
2023-01-27T06:26:02.053Z,7.43
2023-01-27T06:28:29.971Z,8.20
2023-01-27T06:31:04.631Z,5.90
2023-01-27T06:33:31.693Z,4.57
2023-01-27T06:36:03.028Z,6.55
2023-01-27T06:38:30.098Z,5.43
2023-01-27T06:40:56.939Z,6.85
2023-01-27T06:43:23.937Z,5.07
2023-01-27T06:45:51.474Z,6.55
2023-01-27T06:48:18.539Z,5.05
2023-01-27T06:50:46.487Z,9.35
2023-01-27T06:53:13.534Z,7.88
2023-01-27T06:55:41.849Z,6.17
2023-01-27T06:58:09.854Z,5.43
2023-01-27T07:00:37.816Z,5.28
2023-01-27T07:03:05.276Z,6.10
2023-01-27T07:05:33.398Z,4.57
2023-01-27T07:08:01.235Z,5.43
2023-01-27T07:10:28.218Z,6.65
2023-01-27T07:13:09.250Z,7.22
2023-01-27T07:15:37.015Z,4.57
2023-01-27T07:18:07.300Z,4.85
2023-01-27T07:20:34.215Z,5.67
2023-01-27T07:23:02.999Z,5.70
2023-01-27T07:25:31.576Z,6.45
2023-01-27T07:27:59.483Z,4.43
2023-01-27T07:30:27.989Z,4.70
2023-01-27T07:33:00.410Z,4.23
2023-01-27T07:35:27.143Z,4.95
2023-01-27T07:37:53.947Z,4.75
2023-01-27T07:40:20.819Z,4.50
2023-01-27T07:42:48.543Z,5.30
2023-01-27T07:45:15.515Z,5.53
2023-01-27T07:47:42.437Z,6.53
2023-01-27T07:50:10.199Z,5.50
2023-01-27T07:52:37.417Z,4.05
2023-01-27T07:55:04.660Z,4.25
2023-01-27T07:57:31.448Z,4.47
2023-01-27T07:59:58.393Z,8.20
2023-01-27T08:02:26.329Z,7.40
2023-01-27T08:04:53.927Z,6.45
2023-01-27T08:07:21.390Z,5.68
2023-01-27T08:09:49.148Z,5.07
2023-01-27T08:12:16.703Z,4.65
2023-01-27T08:14:43.449Z,4.80
2023-01-27T08:17:10.197Z,6.90
2023-01-27T08:19:39.946Z,5.00
2023-01-27T08:22:06.736Z,4.57
2023-01-27T08:24:33.478Z,11.98
2023-01-27T08:27:00.251Z,5.68
2023-01-27T08:29:28.717Z,6.13
2023-01-27T08:31:55.547Z,4.60
2023-01-27T08:34:22.354Z,4.77
2023-01-27T08:36:49.447Z,4.60
2023-01-27T08:39:16.407Z,6.10
2023-01-27T08:41:43.367Z,6.95
2023-01-27T08:44:10.105Z,4.00
2023-01-27T08:46:36.876Z,4.03
2023-01-27T08:49:03.695Z,6.63
2023-01-27T08:51:30.607Z,11.40
2023-01-27T08:53:57.435Z,5.75
2023-01-27T08:56:24.520Z,6.13
2023-01-27T08:58:52.470Z,6.60
2023-01-27T09:01:20.603Z,4.75
2023-01-27T09:03:47.708Z,4.82
2023-01-27T09:06:15.690Z,5.28
2023-01-27T09:08:43.250Z,9.13
2023-01-27T09:11:15.353Z,4.67
2023-01-27T09:13:42.305Z,3.92
2023-01-27T09:16:09.810Z,7.00
2023-01-27T09:18:36.799Z,5.05
2023-01-27T09:21:07.213Z,7.72
2023-01-27T09:23:34.951Z,8.27
2023-01-27T09:26:01.743Z,4.57
2023-01-27T09:28:28.645Z,7.03
2023-01-27T09:30:58.663Z,5.20
2023-01-27T09:33:26.229Z,4.07
2023-01-27T09:36:20.289Z,7.47
2023-01-27T09:38:53.455Z,3.72
2023-01-27T09:41:38.731Z,4.60
2023-01-27T09:44:23.601Z,4.32
2023-01-27T09:47:11.272Z,5.38
2023-01-27T09:49:56.007Z,6.73
2023-01-27T09:52:48.262Z,3.95
2023-01-27T09:55:33.701Z,6.22
2023-01-27T09:58:24.643Z,3.80
2023-01-27T10:01:30.844Z,5.38
2023-01-27T10:04:32.737Z,5.03
2023-01-27T10:07:03.148Z,5.00
2023-01-27T10:09:54.736Z,3.75
2023-01-27T10:12:52.931Z,3.17
2023-01-27T10:16:13.409Z,5.07
2023-01-27T10:18:50.887Z,4.03
2023-01-27T10:21:35.440Z,6.63
2023-01-27T10:24:02.321Z,5.53
2023-01-27T10:26:50.258Z,5.50
2023-01-27T10:29:22.852Z,7.13
2023-01-27T10:32:08.423Z,5.30
2023-01-27T10:34:47.154Z,4.03
2023-01-27T10:37:29.008Z,4.18
2023-01-27T10:40:22.265Z,5.13
2023-01-27T10:43:10.861Z,8.93
2023-01-27T10:45:42.649Z,4.93
2023-01-27T10:48:43.524Z,4.18
2023-01-27T10:51:24.524Z,7.53
2023-01-27T10:53:57.570Z,6.65
2023-01-27T10:56:47.750Z,7.30
2023-01-27T10:59:35.943Z,4.33
2023-01-27T11:02:13.640Z,5.40
2023-01-27T11:04:47.601Z,5.00
2023-01-27T11:07:20.698Z,4.60
2023-01-27T11:09:56.851Z,9.40
2023-01-27T11:12:31.712Z,8.87
2023-01-27T11:15:01.100Z,5.55
2023-01-27T11:17:45.071Z,7.55
2023-01-27T11:20:34.642Z,11.38
2023-01-27T11:23:13.670Z,5.85
2023-01-27T11:26:23.668Z,8.67
2023-01-27T11:29:06.778Z,9.55
2023-01-27T11:31:53.778Z,5.82
2023-01-27T11:34:42.998Z,5.65
2023-01-27T11:37:30.978Z,10.00
2023-01-27T11:39:59.023Z,4.60
2023-01-27T11:42:35.132Z,6.15
2023-01-27T11:45:02.536Z,4.18
2023-01-27T11:47:34.001Z,3.65
2023-01-27T11:50:01.848Z,6.53
2023-01-27T11:52:29.342Z,8.57
2023-01-27T11:55:16.349Z,10.20
2023-01-27T11:57:46.611Z,4.45
2023-01-27T12:00:26.786Z,4.47
2023-01-27T12:03:07.837Z,6.22
2023-01-27T12:05:36.733Z,4.93
2023-01-27T12:08:05.462Z,5.80
2023-01-27T12:10:39.248Z,5.40
2023-01-27T12:13:19.006Z,4.15
2023-01-27T12:15:56.438Z,5.90
2023-01-27T12:18:26.367Z,6.07
2023-01-27T12:21:04.975Z,4.18
2023-01-27T12:23:37.996Z,5.68
2023-01-27T12:26:07.090Z,8.20
2023-01-27T12:28:37.700Z,7.70
2023-01-27T12:31:08.902Z,5.03
2023-01-27T12:33:40.427Z,6.57
2023-01-27T12:36:16.483Z,13.60
2023-01-27T12:39:14.073Z,5.38
2023-01-27T12:41:42.873Z,4.60
2023-01-27T12:44:18.590Z,7.00
2023-01-27T12:47:25.659Z,4.85
2023-01-27T12:50:23.248Z,6.57
2023-01-27T12:52:54.473Z,5.25
2023-01-27T12:55:37.019Z,5.10
2023-01-27T12:58:04.416Z,5.30
2023-01-27T13:00:33.073Z,4.88
2023-01-27T13:03:12.506Z,6.63
2023-01-27T13:05:43.283Z,7.13
2023-01-27T13:08:19.916Z,4.32
2023-01-27T13:10:53.700Z,7.90
2023-01-27T13:13:29.390Z,5.13
2023-01-27T13:16:15.699Z,5.53
2023-01-27T13:18:51.920Z,4.57
2023-01-27T13:21:23.790Z,4.68
2023-01-27T13:23:53.051Z,6.37
2023-01-27T13:26:28.836Z,6.03
2023-01-27T13:29:34.815Z,7.93
2023-01-27T13:32:18.096Z,5.03
2023-01-27T13:34:54.887Z,8.32
2023-01-27T13:37:43.855Z,6.30
2023-01-27T13:40:16.806Z,6.72
2023-01-27T13:43:07.763Z,11.52
2023-01-27T13:45:41.075Z,5.07
2023-01-27T13:48:20.824Z,5.38
2023-01-27T13:51:09.730Z,5.60
2023-01-27T13:53:37.983Z,4.65
2023-01-27T13:56:25.872Z,6.25
2023-01-27T13:59:30.145Z,8.68
2023-01-27T14:02:26.603Z,5.70
2023-01-27T14:05:20.050Z,6.20
2023-01-27T14:07:55.887Z,4.60
2023-01-27T14:10:26.101Z,6.53
2023-01-27T14:13:07.982Z,6.00
2023-01-27T14:15:50.952Z,7.68
2023-01-27T14:18:24.584Z,7.20
2023-01-27T14:21:25.032Z,9.52
2023-01-27T14:24:31.778Z,8.52
2023-01-27T14:27:10.680Z,6.95
2023-01-27T14:29:40.537Z,5.03
2023-01-27T14:32:29.382Z,4.53
2023-01-27T14:35:14.585Z,5.50
2023-01-27T14:38:03.984Z,5.07
2023-01-27T14:40:37.220Z,7.80
2023-01-27T14:43:22.830Z,4.35
2023-01-27T14:46:15.659Z,4.67
2023-01-27T14:48:59.741Z,11.68
2023-01-27T14:51:39.091Z,4.60
2023-01-27T14:54:52.684Z,10.52
2023-01-27T14:57:32.269Z,5.88
2023-01-27T15:00:26.761Z,3.23
2023-01-27T15:03:11.833Z,4.38
2023-01-27T15:05:38.784Z,6.60
2023-01-27T15:08:24.815Z,5.35
2023-01-27T15:11:27.837Z,5.68
2023-01-27T15:14:18.186Z,9.70
2023-01-27T15:17:00.593Z,8.55
2023-01-27T15:19:49.104Z,6.45
2023-01-27T15:22:53.626Z,18.75
2023-01-27T15:25:33.603Z,24.73
2023-01-27T15:28:01.823Z,12.03
2023-01-27T15:30:34.982Z,39.00
2023-01-27T15:33:02.064Z,32.03
2023-01-27T15:35:34.366Z,15.73
2023-01-27T15:38:20.328Z,29.02
2023-01-27T15:41:07.974Z,36.50
2023-01-27T15:43:41.647Z,21.88
2023-01-27T15:46:30.117Z,23.00
2023-01-27T15:49:00.638Z,11.32
2023-01-27T15:51:29.892Z,13.35
2023-01-27T15:53:59.039Z,9.03
2023-01-27T15:56:53.163Z,20.67
2023-01-27T15:59:30.510Z,13.02
2023-01-27T16:02:13.279Z,9.88
2023-01-27T16:04:40.560Z,9.38
2023-01-27T16:07:29.120Z,12.83
2023-01-27T16:09:58.226Z,8.48
2023-01-27T16:12:28.571Z,6.97
2023-01-27T16:15:12.701Z,7.47
2023-01-27T16:18:22.110Z,6.40
2023-01-27T16:20:48.952Z,7.40
2023-01-27T16:23:43.365Z,9.15
2023-01-27T16:26:18.923Z,6.45
2023-01-27T16:28:48.910Z,9.43
2023-01-27T16:31:28.249Z,8.45
2023-01-27T16:34:00.488Z,7.03
2023-01-27T16:36:30.327Z,5.20
2023-01-27T16:39:17.549Z,7.90
2023-01-27T16:41:55.133Z,6.68
2023-01-27T16:44:33.288Z,6.00
2023-01-27T16:47:16.400Z,5.70
2023-01-27T16:49:44.781Z,8.50
2023-01-27T16:52:35.843Z,9.45
2023-01-27T16:55:08.227Z,7.50
2023-01-27T16:57:42.508Z,6.38
2023-01-27T17:00:23.141Z,10.87
2023-01-27T17:02:52.245Z,7.38
2023-01-27T17:05:20.884Z,6.20
2023-01-27T17:08:14.499Z,6.90
2023-01-27T17:10:54.371Z,6.57
2023-01-27T17:13:36.548Z,5.57
2023-01-27T17:16:06.795Z,8.20
2023-01-27T17:18:50.865Z,6.88
2023-01-27T17:21:34.549Z,6.90
2023-01-27T17:24:05.789Z,7.78
2023-01-27T17:26:34.059Z,7.33
2023-01-27T17:29:01.015Z,6.00
2023-01-27T17:31:28.140Z,8.48
2023-01-27T17:34:03.464Z,7.20
2023-01-27T17:36:30.464Z,7.50
2023-01-27T17:38:57.911Z,7.37
2023-01-27T17:41:38.991Z,18.60
2023-01-27T17:44:14.217Z,11.10
2023-01-27T17:47:00.428Z,21.05
2023-01-27T17:49:28.104Z,9.15
2023-01-27T17:51:57.665Z,17.73
2023-01-27T17:54:33.993Z,11.70
2023-01-27T17:57:21.322Z,10.98
2023-01-27T17:59:55.068Z,8.35
2023-01-27T18:02:38.791Z,10.52
2023-01-27T18:05:18.161Z,9.80
2023-01-27T18:07:45.876Z,7.57
2023-01-27T18:10:35.909Z,11.45
2023-01-27T18:13:17.920Z,8.55
2023-01-27T18:16:03.005Z,9.13
2023-01-27T18:18:32.880Z,12.67
2023-01-27T18:21:02.942Z,9.30
2023-01-27T18:23:39.365Z,6.60
2023-01-27T18:26:34.401Z,8.27
2023-01-27T18:29:07.850Z,6.78
2023-01-27T18:31:44.750Z,5.73
2023-01-27T18:34:22.820Z,8.35
2023-01-27T18:36:57.610Z,6.82
2023-01-27T18:39:41.808Z,6.47
2023-01-27T18:42:19.674Z,7.82
2023-01-27T18:44:50.211Z,6.37
2023-01-27T18:47:17.957Z,6.40
2023-01-27T18:49:57.709Z,7.22
2023-01-27T18:52:25.252Z,7.32
2023-01-27T18:55:26.437Z,7.85
2023-01-27T18:58:02.407Z,6.23
2023-01-27T19:00:45.026Z,7.00
2023-01-27T19:03:34.680Z,7.43
2023-01-27T19:06:01.923Z,6.70
2023-01-27T19:08:28.793Z,9.93
2023-01-27T19:10:58.519Z,7.67
2023-01-27T19:13:25.809Z,12.45
2023-01-27T19:15:56.695Z,10.73
2023-01-27T19:18:26.643Z,7.40
2023-01-27T19:20:53.737Z,8.15
2023-01-27T19:23:21.748Z,6.20
2023-01-27T19:25:52.361Z,6.30
2023-01-27T19:28:40.032Z,6.72
2023-01-27T19:31:08.495Z,9.63
2023-01-27T19:33:37.336Z,12.38
2023-01-27T19:36:10.689Z,23.40
2023-01-27T19:38:37.450Z,7.93
2023-01-27T19:41:04.423Z,20.00
2023-01-27T19:43:31.272Z,10.95
2023-01-27T19:45:58.307Z,13.60
2023-01-27T19:48:25.482Z,17.10
2023-01-27T19:50:56.001Z,9.60
2023-01-27T19:53:22.938Z,24.33
2023-01-27T19:55:50.531Z,18.10
2023-01-27T19:58:25.873Z,12.70
2023-01-27T20:00:54.594Z,21.60
2023-01-27T20:03:23.194Z,14.60
2023-01-27T20:05:50.064Z,10.00
2023-01-27T20:08:19.366Z,11.27
2023-01-27T20:10:46.670Z,8.65
2023-01-27T20:13:19.361Z,29.70
2023-01-27T20:15:46.983Z,13.77
2023-01-27T20:18:18.717Z,13.70
2023-01-27T20:20:45.738Z,17.60
2023-01-27T20:23:15.412Z,17.45
2023-01-27T20:25:42.737Z,10.30
2023-01-27T20:28:10.483Z,11.07
2023-01-27T20:30:37.525Z,13.68
2023-01-27T20:33:05.164Z,13.88
2023-01-27T20:35:32.666Z,17.25
2023-01-27T20:38:00.001Z,18.70
2023-01-27T20:40:28.979Z,17.70
2023-01-27T20:42:56.562Z,18.55
2023-01-27T20:45:23.561Z,19.85
2023-01-27T20:47:57.315Z,12.77
2023-01-27T20:50:26.279Z,7.43
2023-01-27T20:52:53.742Z,19.77
2023-01-27T20:55:20.708Z,17.25
2023-01-27T20:57:49.205Z,26.60
2023-01-27T21:00:19.404Z,13.20
2023-01-27T21:02:46.413Z,15.60
2023-01-27T21:05:13.791Z,12.43
2023-01-27T21:07:41.198Z,19.88
2023-01-27T21:10:08.639Z,13.00
2023-01-27T21:12:35.755Z,10.43
2023-01-27T21:15:07.980Z,15.23
2023-01-27T21:17:34.991Z,8.27
2023-01-27T21:20:02.192Z,13.23
2023-01-27T21:22:29.475Z,8.60
2023-01-27T21:24:57.134Z,11.10
2023-01-27T21:27:24.057Z,12.17
2023-01-27T21:29:50.975Z,11.55
2023-01-27T21:32:20.548Z,9.40
2023-01-27T21:34:47.689Z,13.90
2023-01-27T21:37:14.622Z,11.05
2023-01-27T21:39:41.537Z,11.60
2023-01-27T21:42:13.477Z,12.75
2023-01-27T21:44:58.923Z,42.55
2023-01-27T21:47:25.776Z,20.17
2023-01-27T21:50:02.441Z,11.40
2023-01-27T21:52:35.419Z,11.57
2023-01-27T21:55:07.871Z,23.30
2023-01-27T21:57:36.060Z,11.43
2023-01-27T22:02:58.716Z,11.95
2023-01-27T22:05:33.493Z,9.73
2023-01-27T22:08:03.246Z,11.25
2023-01-27T22:10:32.690Z,30.58
2023-01-27T22:13:03.393Z,15.25
2023-01-27T22:15:30.964Z,49.70
2023-01-27T22:17:58.833Z,50.50
2023-01-27T22:20:26.732Z,12.50
2023-01-27T22:22:53.792Z,13.68
2023-01-27T22:25:20.614Z,10.50
2023-01-27T22:27:47.676Z,10.75
2023-01-27T22:30:19.566Z,13.90
2023-01-27T22:32:47.718Z,12.13
2023-01-27T22:35:16.026Z,11.52
2023-01-27T22:37:43.901Z,9.63
2023-01-27T22:40:12.673Z,10.98
2023-01-27T22:42:42.208Z,9.67
2023-01-27T22:45:13.482Z,10.95
2023-01-27T22:47:40.629Z,11.45
2023-01-27T22:50:08.586Z,10.98
2023-01-27T22:52:36.752Z,11.48
2023-01-27T22:55:09.366Z,10.20
2023-01-27T22:57:36.197Z,12.35
2023-01-27T23:00:04.114Z,11.75
2023-01-27T23:02:31.094Z,9.88
2023-01-27T23:04:59.156Z,11.60
2023-01-27T23:07:26.371Z,13.30
2023-01-27T23:09:53.113Z,11.23
2023-01-27T23:12:20.479Z,13.93
2023-01-27T23:14:47.373Z,12.18
2023-01-27T23:17:14.225Z,12.00
2023-01-27T23:19:40.972Z,11.03
2023-01-27T23:22:07.756Z,11.88
2023-01-27T23:24:34.642Z,14.48
2023-01-27T23:27:01.617Z,10.20
2023-01-27T23:29:29.443Z,13.38
2023-01-27T23:31:56.614Z,11.83
2023-01-27T23:34:23.783Z,11.60
2023-01-27T23:36:50.594Z,13.10
2023-01-27T23:39:17.776Z,11.50
2023-01-27T23:41:44.586Z,11.38
2023-01-27T23:44:12.510Z,10.17
2023-01-27T23:46:39.756Z,12.23
2023-01-27T23:49:07.977Z,11.55
2023-01-27T23:51:34.993Z,11.23
2023-01-27T23:54:02.111Z,10.65
2023-01-27T23:56:29.081Z,15.57
2023-01-27T23:58:56.968Z,9.52
